Time;durP1;ratioP1;P1;durP2;ratioP2;P2;SDS_P1;SDS_P2;PMS_P1;PMS_P2;Temp;Humidity;BMP_temperature;BMP_pressure;BME280_temperature;BME280_humidity;BME280_pressure;Samples;Min_cycle;Max_cycle;Signal;HPM_P1;HPM_P2
2022/06/14 00:03:11;;;;;;;2.22;0.90;;;13.20;81.70;;;;;;5030900;28;20037;-74
2022/06/14 00:05:37;;;;;;;1.80;0.68;;;13.20;82.00;;;;;;5033084;28;20098;-74
2022/06/14 00:08:03;;;;;;;2.83;0.90;;;13.10;82.00;;;;;;5040479;28;20101;-74
2022/06/14 00:10:29;;;;;;;3.10;0.70;;;13.10;82.20;;;;;;5035475;28;20124;-72
2022/06/14 00:12:55;;;;;;;5.13;1.00;;;13.00;82.70;;;;;;5033745;28;20740;-71
2022/06/14 00:15:22;;;;;;;4.88;0.90;;;13.00;83.00;;;;;;5035776;28;20029;-72
2022/06/14 00:17:48;;;;;;;3.10;0.85;;;12.90;83.00;;;;;;5034556;28;20136;-65
2022/06/14 00:20:14;;;;;;;4.47;0.90;;;12.90;83.20;;;;;;5034874;28;20051;-72
2022/06/14 00:22:40;;;;;;;0.95;0.90;;;12.80;83.40;;;;;;5034737;28;20489;-73
2022/06/14 00:25:07;;;;;;;3.05;1.08;;;12.70;83.70;;;;;;5035169;28;20401;-73
2022/06/14 00:27:33;;;;;;;1.10;0.90;;;12.60;83.90;;;;;;5037544;28;20823;-73
2022/06/14 00:29:59;;;;;;;3.28;0.90;;;12.60;84.10;;;;;;5046782;28;20033;-73
2022/06/14 00:32:24;;;;;;;4.90;1.55;;;12.50;84.40;;;;;;5036662;28;20040;-73
2022/06/14 00:34:50;;;;;;;4.22;1.10;;;12.50;84.60;;;;;;5036127;28;20036;-73
2022/06/14 00:37:18;;;;;;;3.95;1.15;;;12.50;84.90;;;;;;5033617;28;20104;-73
2022/06/14 00:39:44;;;;;;;1.88;0.90;;;12.40;85.10;;;;;;5030348;28;20033;-73
2022/06/14 00:42:18;;;;;;;2.10;1.20;;;12.40;85.40;;;;;;5037977;28;20059;-73
2022/06/14 00:45:00;;;;;;;3.20;0.80;;;12.40;85.50;;;;;;5036165;28;20060;-73
2022/06/14 00:47:26;;;;;;;3.42;1.00;;;12.30;85.40;;;;;;5034618;28;20029;-73
2022/06/14 00:49:59;;;;;;;2.78;1.00;;;12.30;85.70;;;;;;5036662;28;20032;-73
2022/06/14 00:52:37;;;;;;;4.10;1.35;;;12.30;85.70;;;;;;5049952;28;20401;-73
2022/06/14 00:55:29;;;;;;;1.75;1.02;;;12.20;86.00;;;;;;5037520;28;20033;-73
2022/06/14 00:58:11;;;;;;;3.92;1.40;;;12.20;86.10;;;;;;5032877;28;20072;-71
2022/06/14 01:00:45;;;;;;;1.40;0.85;;;12.10;86.20;;;;;;5035025;28;20036;-73
2022/06/14 01:03:18;;;;;;;2.97;0.90;;;12.00;86.40;;;;;;5034170;28;20032;-73
2022/06/14 01:06:08;;;;;;;3.20;1.00;;;12.00;86.60;;;;;;5031136;28;20465;-73
2022/06/14 01:08:38;;;;;;;2.13;0.85;;;12.00;86.70;;;;;;5036252;28;20594;-73
2022/06/14 01:11:08;;;;;;;1.60;0.88;;;11.90;87.00;;;;;;5049930;28;20036;-73
2022/06/14 01:13:36;;;;;;;2.50;0.90;;;11.90;87.10;;;;;;5032401;28;20063;-72
2022/06/14 01:16:02;;;;;;;4.05;1.02;;;11.80;87.40;;;;;;5033244;28;20179;-72
2022/06/14 01:18:29;;;;;;;2.65;0.95;;;11.80;87.80;;;;;;5034344;28;20053;-72
2022/06/14 01:20:55;;;;;;;5.38;0.98;;;11.70;88.00;;;;;;5034617;28;20190;-72
2022/06/14 01:23:21;;;;;;;4.05;1.42;;;11.70;88.20;;;;;;5035256;28;20045;-72
2022/06/14 01:25:51;;;;;;;4.93;0.85;;;11.70;88.30;;;;;;5033803;28;20029;-72
2022/06/14 01:28:21;;;;;;;4.20;1.80;;;11.70;88.50;;;;;;5033946;28;20477;-72
2022/06/14 01:30:50;;;;;;;0.90;0.73;;;11.70;88.70;;;;;;5031014;28;20481;-72
2022/06/14 01:33:27;;;;;;;7.13;1.17;;;11.70;88.60;;;;;;5033359;28;20036;-72
2022/06/14 01:35:57;;;;;;;3.65;1.20;;;11.60;88.80;;;;;;5033757;28;20040;-73
2022/06/14 01:38:24;;;;;;;2.53;1.20;;;11.60;89.00;;;;;;5029887;28;20095;-72
2022/06/14 01:40:58;;;;;;;2.13;1.00;;;11.60;89.60;;;;;;5038312;28;20148;-72
2022/06/14 01:43:36;;;;;;;2.15;1.00;;;11.60;89.20;;;;;;5036265;28;20731;-72
2022/06/14 01:46:15;;;;;;;2.30;1.10;;;11.60;89.30;;;;;;5030206;28;20563;-72
2022/06/14 01:51:50;;;;;;;2.75;0.90;;;11.50;89.60;;;;;;5038653;28;20033;-72
2022/06/14 01:52:02;;;;;;;1.55;1.00;;;11.50;90.00;;;;;;5041088;28;20025;-72
2022/06/14 01:54:49;;;;;;;4.95;1.20;;;11.50;90.00;;;;;;5039095;28;20033;-72
2022/06/14 01:57:35;;;;;;;4.95;1.17;;;11.50;90.00;;;;;;5035463;28;20152;-72
2022/06/14 02:00:31;;;;;;;3.08;1.20;;;11.50;90.00;;;;;;5036346;28;20522;-72
2022/06/14 02:06:22;;;;;;;2.80;1.38;;;11.50;90.10;;;;;;5035620;28;20128;-72
2022/06/14 02:09:05;;;;;;;3.63;1.05;;;11.50;90.10;;;;;;5038118;28;20033;-72
2022/06/14 02:11:34;;;;;;;3.70;1.30;;;11.50;90.20;;;;;;5031924;28;20033;-71
2022/06/14 02:14:26;;;;;;;2.78;1.08;;;11.60;90.20;;;;;;5034353;28;20032;-72
2022/06/14 02:17:02;;;;;;;2.90;1.10;;;11.50;90.00;;;;;;5033631;28;20037;-72
2022/06/14 02:19:45;;;;;;;1.92;1.02;;;11.50;90.10;;;;;;5029924;28;20552;-72
2022/06/14 02:22:22;;;;;;;5.32;1.25;;;11.50;90.10;;;;;;5035957;28;20071;-72
2022/06/14 02:24:59;;;;;;;3.78;1.10;;;11.50;90.10;;;;;;5030968;28;20047;-72
2022/06/14 02:27:27;;;;;;;3.72;1.20;;;11.40;90.20;;;;;;5034681;28;20087;-72
2022/06/14 02:29:58;;;;;;;1.75;1.13;;;11.40;90.10;;;;;;5039412;28;20075;-72
2022/06/14 02:32:55;;;;;;;3.67;1.30;;;11.30;90.30;;;;;;5035764;28;20037;-72
2022/06/14 02:35:27;;;;;;;2.78;1.27;;;11.30;90.40;;;;;;5037142;28;20037;-72
2022/06/14 02:37:59;;;;;;;4.38;1.52;;;11.30;90.40;;;;;;5034712;28;20061;-71
2022/06/14 02:40:30;;;;;;;2.53;1.30;;;11.30;90.40;;;;;;5034586;28;20576;-72
2022/06/14 02:43:12;;;;;;;6.82;1.38;;;11.30;90.40;;;;;;5035415;28;20054;-72
2022/06/14 02:45:55;;;;;;;1.23;1.08;;;11.20;90.40;;;;;;5038347;28;20117;-72
2022/06/14 02:48:34;;;;;;;4.18;1.25;;;11.20;90.50;;;;;;5036853;28;20060;-72
2022/06/14 02:51:07;;;;;;;1.45;1.00;;;11.20;90.50;;;;;;5036552;28;20033;-72
2022/06/14 02:53:51;;;;;;;4.25;1.30;;;11.20;90.50;;;;;;5033619;28;20586;-72
2022/06/14 02:57:00;;;;;;;3.03;1.48;;;11.30;90.50;;;;;;5028369;28;20033;-72
2022/06/14 02:59:53;;;;;;;5.07;1.40;;;11.30;90.50;;;;;;4978348;28;20026;-72
2022/06/14 03:02:26;;;;;;;2.85;1.52;;;11.30;90.50;;;;;;5033164;28;20040;-72
2022/06/14 03:05:00;;;;;;;5.70;1.40;;;11.30;90.40;;;;;;5031939;28;20160;-73
2022/06/14 03:07:37;;;;;;;6.47;1.58;;;11.40;90.40;;;;;;5032543;28;20032;-72
2022/06/14 03:10:03;;;;;;;3.08;1.27;;;11.40;90.30;;;;;;5041927;28;20112;-72
2022/06/14 03:12:53;;;;;;;5.13;1.10;;;11.50;90.10;;;;;;5036628;28;20028;-72
2022/06/14 03:15:34;;;;;;;3.10;1.27;;;11.50;90.00;;;;;;5034881;28;20850;-73
2022/06/14 03:18:36;;;;;;;1.55;1.15;;;11.50;90.00;;;;;;5032147;28;20111;-72
2022/06/14 03:21:29;;;;;;;4.78;1.60;;;11.50;90.00;;;;;;5005334;28;20037;-72
2022/06/14 03:24:18;;;;;;;5.85;1.38;;;11.60;89.90;;;;;;5032644;28;20036;-72
2022/06/14 03:27:10;;;;;;;3.03;1.23;;;11.60;89.80;;;;;;5010999;28;20048;-72
2022/06/14 03:29:55;;;;;;;4.47;1.10;;;11.60;89.60;;;;;;5038854;28;20036;-72
2022/06/14 03:32:47;;;;;;;4.25;1.55;;;11.70;89.50;;;;;;5036621;28;20037;-71
2022/06/14 03:35:23;;;;;;;5.38;1.42;;;11.70;89.90;;;;;;5032677;28;20726;-72
2022/06/14 03:37:49;;;;;;;3.50;1.25;;;11.90;89.20;;;;;;5043016;28;20029;-73
2022/06/14 03:40:18;;;;;;;3.22;1.42;;;11.90;88.70;;;;;;5037571;28;20634;-72
2022/06/14 03:42:44;;;;;;;4.18;1.40;;;12.00;88.60;;;;;;5041673;28;20041;-72
2022/06/14 03:45:15;;;;;;;6.47;1.20;;;12.10;88.20;;;;;;5044391;28;20492;-72
2022/06/14 03:47:41;;;;;;;5.85;1.40;;;12.10;87.80;;;;;;5042127;28;20035;-72
2022/06/14 03:50:13;;;;;;;4.47;1.42;;;12.20;87.70;;;;;;5038338;28;20404;-72
2022/06/14 03:52:53;;;;;;;1.77;1.10;;;12.30;87.60;;;;;;5037445;28;20020;-72
2022/06/14 03:55:28;;;;;;;2.70;1.33;;;12.40;87.60;;;;;;5034835;28;20042;-72
2022/06/14 03:58:06;;;;;;;1.90;1.02;;;12.50;87.20;;;;;;5040376;28;20895;-72
2022/06/14 04:00:50;;;;;;;7.18;1.67;;;12.70;86.70;;;;;;5039726;28;20033;-73
2022/06/14 04:03:16;;;;;;;6.32;1.25;;;12.80;86.00;;;;;;5042002;28;20500;-72
2022/06/14 04:06:09;;;;;;;5.38;1.40;;;13.00;85.50;;;;;;5041411;28;20059;-73
2022/06/14 04:08:58;;;;;;;5.65;1.50;;;13.00;85.20;;;;;;5036275;28;20068;-72
2022/06/14 04:11:46;;;;;;;4.65;1.52;;;13.00;84.90;;;;;;5041594;28;20086;-72
2022/06/14 04:14:32;;;;;;;6.60;1.70;;;13.00;84.80;;;;;;5042313;28;20025;-73
2022/06/14 04:17:22;;;;;;;2.30;1.23;;;13.00;84.70;;;;;;5042861;28;20033;-72
2022/06/14 04:19:51;;;;;;;2.92;1.38;;;12.90;85.10;;;;;;5044760;28;20063;-72
2022/06/14 04:22:46;;;;;;;3.95;1.58;;;12.80;85.60;;;;;;5040590;28;20029;-72
2022/06/14 04:25:35;;;;;;;6.78;1.90;;;12.80;86.00;;;;;;5037282;28;20524;-72
2022/06/14 04:28:19;;;;;;;3.42;1.50;;;12.80;86.20;;;;;;5036673;28;20028;-71
2022/06/14 04:31:03;;;;;;;7.28;2.72;;;12.90;86.40;;;;;;5037111;28;20041;-72
2022/06/14 04:33:29;;;;;;;3.30;1.35;;;13.00;85.90;;;;;;5036621;28;20041;-72
2022/06/14 04:36:13;;;;;;;4.57;1.27;;;13.10;85.70;;;;;;5044043;28;20032;-72
2022/06/14 04:39:11;;;;;;;3.40;1.50;;;13.20;85.60;;;;;;5035664;28;20382;-72
2022/06/14 04:41:46;;;;;;;5.30;1.42;;;13.40;85.40;;;;;;5038242;28;20032;-73
2022/06/14 04:44:23;;;;;;;5.32;1.23;;;13.60;85.00;;;;;;5033252;28;20067;-72
2022/06/14 04:47:09;;;;;;;4.93;1.48;;;13.90;83.60;;;;;;5059564;28;20768;-73
2022/06/14 04:49:49;;;;;;;6.07;1.95;;;14.20;81.80;;;;;;5044276;28;20128;-72
2022/06/14 04:52:24;;;;;;;3.88;1.50;;;14.50;80.20;;;;;;5041785;28;20036;-72
2022/06/14 04:55:04;;;;;;;2.95;1.20;;;14.70;79.30;;;;;;5044188;28;20044;-73
2022/06/14 04:57:33;;;;;;;7.03;2.10;;;14.90;78.50;;;;;;5035197;28;20440;-73
2022/06/14 05:00:09;;;;;;;5.00;1.10;;;14.90;78.20;;;;;;5039200;28;20040;-72
2022/06/14 05:03:07;;;;;;;7.75;1.38;;;14.90;78.00;;;;;;5038480;28;20024;-72
2022/06/14 05:05:39;;;;;;;4.90;1.20;;;15.00;77.90;;;;;;5033647;28;20457;-72
2022/06/14 05:08:10;;;;;;;5.72;1.80;;;15.10;77.20;;;;;;5040503;28;20067;-73
2022/06/14 05:10:48;;;;;;;8.25;1.83;;;15.20;76.60;;;;;;5036847;28;20436;-72
2022/06/14 05:13:17;;;;;;;6.15;1.55;;;15.30;76.40;;;;;;5038346;28;20535;-73
2022/06/14 05:15:49;;;;;;;11.88;2.10;;;15.30;75.80;;;;;;5033860;28;20789;-72
2022/06/14 05:18:19;;;;;;;4.65;1.35;;;15.30;75.70;;;;;;5031844;28;20448;-72
2022/06/14 05:21:10;;;;;;;6.25;1.23;;;15.30;75.90;;;;;;5034224;28;20041;-73
2022/06/14 05:23:52;;;;;;;3.65;1.23;;;15.50;75.50;;;;;;5029210;28;20079;-73
2022/06/14 05:26:29;;;;;;;8.20;1.90;;;15.90;74.70;;;;;;5037169;28;20032;-72
2022/06/14 05:29:19;;;;;;;7.40;1.40;;;16.30;72.90;;;;;;5033327;28;20031;-73
2022/06/14 05:32:03;;;;;;;5.03;1.25;;;16.60;71.70;;;;;;5034757;28;20033;-72
2022/06/14 05:34:50;;;;;;;8.27;1.70;;;16.60;71.10;;;;;;5035147;28;20117;-72
2022/06/14 05:37:44;;;;;;;4.75;1.40;;;16.50;71.00;;;;;;5037014;28;20118;-72
2022/06/14 05:40:25;;;;;;;7.43;1.45;;;16.40;71.70;;;;;;5036889;28;20037;-73
2022/06/14 05:43:14;;;;;;;5.07;1.83;;;16.30;71.90;;;;;;5032055;28;20029;-73
2022/06/14 05:45:47;;;;;;;3.50;1.40;;;16.40;71.70;;;;;;5031531;28;20140;-73
2022/06/14 05:48:24;;;;;;;6.30;1.40;;;16.50;70.90;;;;;;5030454;28;20743;-73
2022/06/14 05:50:53;;;;;;;;;;;16.60;70.70;;;;;;5034155;28;20039;-73
2022/06/14 05:53:46;;;;;;;3.83;1.20;;;16.80;70.20;;;;;;5037331;28;19913;-73
2022/06/14 05:56:23;;;;;;;6.68;1.65;;;16.90;69.10;;;;;;5036375;28;20116;-72
2022/06/14 05:59:14;;;;;;;4.78;1.23;;;17.00;68.60;;;;;;5032884;28;20632;-73
2022/06/14 06:01:58;;;;;;;3.15;1.10;;;16.90;68.50;;;;;;5031251;28;20492;-73
2022/06/14 06:04:34;;;;;;;4.25;1.20;;;16.80;69.00;;;;;;5031385;28;20045;-73
2022/06/14 06:07:05;;;;;;;7.47;1.60;;;16.60;69.40;;;;;;5037391;28;20033;-73
2022/06/14 06:09:36;;;;;;;8.00;1.17;;;16.60;69.80;;;;;;5035329;28;20033;-73
2022/06/14 06:12:17;;;;;;;6.43;1.50;;;16.80;69.60;;;;;;5031444;28;20032;-72
2022/06/14 06:15:09;;;;;;;7.07;1.48;;;16.90;69.20;;;;;;5039463;28;20081;-72
2022/06/14 06:17:44;;;;;;;7.90;1.77;;;17.20;68.40;;;;;;5031958;28;20500;-73
2022/06/14 06:20:36;;;;;;;6.70;1.52;;;17.20;67.50;;;;;;5035569;28;20052;-73
2022/06/14 06:23:12;;;;;;;8.05;1.73;;;17.30;67.20;;;;;;5035333;28;20033;-72
2022/06/14 06:25:49;;;;;;;6.70;1.60;;;17.40;66.40;;;;;;5039558;28;20037;-73
2022/06/14 06:28:24;;;;;;;10.43;1.80;;;17.50;66.60;;;;;;5033741;28;20034;-73
2022/06/14 06:31:00;;;;;;;9.57;1.30;;;17.70;65.60;;;;;;5042357;28;20659;-73
2022/06/14 06:33:29;;;;;;;5.00;1.08;;;17.90;65.10;;;;;;5038319;28;20044;-73
2022/06/14 06:36:00;;;;;;;6.20;1.40;;;18.10;64.60;;;;;;5035521;28;20677;-72
2022/06/14 06:38:51;;;;;;;5.40;1.45;;;18.20;63.80;;;;;;5031253;28;20041;-73
2022/06/14 06:44:12;;;;;;;8.32;1.88;;;18.00;63.20;;;;;;5033547;28;20837;-72
2022/06/14 06:46:46;;;;;;;9.25;1.48;;;18.00;63.60;;;;;;5048539;28;20037;-73
2022/06/14 06:49:15;;;;;;;4.82;1.35;;;18.10;63.20;;;;;;5033997;28;20259;-73
2022/06/14 06:51:50;;;;;;;4.13;1.30;;;18.10;62.90;;;;;;5032261;28;20037;-73
2022/06/14 06:54:29;;;;;;;5.97;1.43;;;18.30;63.00;;;;;;5037356;28;20036;-73
2022/06/14 06:56:58;;;;;;;5.97;1.50;;;18.60;62.10;;;;;;5038813;28;20347;-73
2022/06/14 06:59:31;;;;;;;8.02;1.15;;;18.80;60.90;;;;;;5050550;28;20120;-74
2022/06/14 07:02:02;;;;;;;3.78;1.38;;;18.90;60.70;;;;;;5033878;28;20036;-73
2022/06/14 07:07:51;;;;;;;6.45;1.50;;;19.00;58.30;;;;;;5036702;28;20101;-73
2022/06/14 07:10:41;;;;;;;4.87;1.00;;;18.90;58.20;;;;;;5040322;28;20049;-71
2022/06/14 07:13:07;;;;;;;4.50;1.20;;;19.00;58.10;;;;;;5040664;28;20040;-70
2022/06/14 07:15:33;;;;;;;5.10;1.40;;;19.20;57.50;;;;;;5042234;28;20078;-71
2022/06/14 07:18:10;;;;;;;5.03;1.33;;;19.20;56.80;;;;;;5032952;28;20103;-71
2022/06/14 07:20:44;;;;;;;7.13;1.63;;;19.30;57.10;;;;;;5031418;28;20024;-71
2022/06/14 07:23:18;;;;;;;4.93;1.30;;;19.90;55.70;;;;;;5036947;28;20025;-71
2022/06/14 07:25:59;;;;;;;6.15;1.48;;;20.20;54.70;;;;;;5035337;28;20156;-71
2022/06/14 07:28:33;;;;;;;7.13;1.52;;;20.40;54.40;;;;;;5049750;28;20040;-72
2022/06/14 07:31:06;;;;;;;5.47;1.10;;;20.60;53.00;;;;;;5041650;28;20458;-71
2022/06/14 07:33:34;;;;;;;7.60;1.38;;;20.70;52.80;;;;;;5031507;28;20025;-71
2022/06/14 07:36:24;;;;;;;6.00;1.10;;;20.80;52.70;;;;;;5041482;28;20048;-72
2022/06/14 07:39:10;;;;;;;5.35;0.93;;;20.70;51.20;;;;;;5032491;28;20025;-72
2022/06/14 07:42:12;;;;;;;10.23;1.20;;;20.80;51.70;;;;;;5037319;28;20044;-71
2022/06/14 07:44:56;;;;;;;5.80;1.38;;;20.90;50.80;;;;;;5034748;28;20045;-72
2022/06/14 07:47:43;;;;;;;3.70;1.05;;;21.00;49.90;;;;;;5040115;28;20121;-72
2022/06/14 07:50:35;;;;;;;3.65;1.10;;;21.00;50.10;;;;;;5031954;28;20032;-72
2022/06/14 07:53:49;;;;;;;5.35;1.23;;;20.90;49.70;;;;;;5023832;28;20037;-72
2022/06/14 07:56:23;;;;;;;7.10;1.35;;;20.70;50.00;;;;;;5035294;28;20135;-72
2022/06/14 07:59:01;;;;;;;6.25;1.30;;;20.50;50.70;;;;;;5036479;28;20029;-72
2022/06/14 08:01:37;;;;;;;3.58;1.30;;;20.60;50.60;;;;;;5040062;28;20099;-70
2022/06/14 08:04:15;;;;;;;5.50;1.10;;;20.60;50.00;;;;;;5038138;28;20036;-72
2022/06/14 08:06:53;;;;;;;4.82;1.10;;;20.50;49.80;;;;;;5041146;28;20039;-71
2022/06/14 08:09:46;;;;;;;7.18;1.33;;;20.40;50.30;;;;;;5033037;28;20032;-71
2022/06/14 08:12:35;;;;;;;3.63;1.20;;;20.30;50.10;;;;;;5037433;28;20039;-70
2022/06/14 08:15:01;;;;;;;3.00;0.88;;;20.40;49.90;;;;;;5039004;28;20048;-72
2022/06/14 08:17:54;;;;;;;5.90;1.27;;;20.40;49.10;;;;;;5036164;28;20021;-70
2022/06/14 08:20:35;;;;;;;6.22;1.23;;;20.40;48.70;;;;;;5029778;28;20035;-70
2022/06/14 08:23:12;;;;;;;7.60;1.10;;;20.80;49.50;;;;;;5032103;28;20044;-70
2022/06/14 08:25:49;;;;;;;4.15;0.90;;;20.90;48.50;;;;;;5031156;28;20493;-71
2022/06/14 08:28:22;;;;;;;3.90;1.25;;;20.80;48.40;;;;;;5038970;28;20600;-70
2022/06/14 08:30:51;;;;;;;5.15;0.98;;;20.80;49.50;;;;;;5031864;28;20025;-70
2022/06/14 08:33:27;;;;;;;3.25;1.05;;;20.80;48.70;;;;;;5035840;28;20047;-69
2022/06/14 08:35:59;;;;;;;6.88;1.63;;;21.10;47.80;;;;;;5036731;28;20140;-69
2022/06/14 08:38:35;;;;;;;2.70;0.90;;;21.30;47.00;;;;;;5030474;28;20568;-69
2022/06/14 08:41:16;;;;;;;7.90;2.13;;;21.60;46.60;;;;;;5034458;28;20563;-70
2022/06/14 08:43:46;;;;;;;4.53;0.90;;;21.40;46.20;;;;;;5034462;28;20368;-72
2022/06/14 08:46:20;;;;;;;5.85;1.10;;;21.40;46.00;;;;;;5038101;28;20036;-71
2022/06/14 08:48:57;;;;;;;4.88;1.40;;;21.20;46.20;;;;;;5034252;28;20025;-72
2022/06/14 08:51:41;;;;;;;5.25;1.13;;;21.50;46.70;;;;;;5035684;28;20629;-71
2022/06/14 08:54:22;;;;;;;4.93;0.95;;;21.90;46.00;;;;;;5029545;28;20032;-71
2022/06/14 08:57:10;;;;;;;6.40;1.65;;;22.00;44.20;;;;;;5032552;28;20037;-70
2022/06/14 09:00:14;;;;;;;5.88;1.15;;;22.40;44.60;;;;;;5039451;28;20471;-73
2022/06/14 09:02:58;;;;;;;3.63;0.90;;;22.50;42.60;;;;;;5035104;28;20044;-72
2022/06/14 09:05:55;;;;;;;3.70;1.08;;;22.40;43.30;;;;;;5037336;28;20497;-73
2022/06/14 09:08:53;;;;;;;5.65;1.48;;;22.20;43.00;;;;;;5038006;28;20040;-73
2022/06/14 09:11:31;;;;;;;4.65;0.95;;;21.70;43.40;;;;;;5032736;28;20037;-73
2022/06/14 09:14:30;;;;;;;2.83;0.80;;;21.80;44.10;;;;;;5039154;28;20037;-73
2022/06/14 09:17:08;;;;;;;2.10;0.80;;;22.00;43.30;;;;;;5037785;28;20067;-73
2022/06/14 09:19:52;;;;;;;3.65;0.90;;;21.90;43.00;;;;;;5038977;28;20208;-73
2022/06/14 09:22:21;;;;;;;5.05;1.00;;;22.10;43.80;;;;;;5059345;28;20037;-73
2022/06/14 09:25:07;;;;;;;3.30;1.00;;;22.10;43.60;;;;;;5040006;28;20024;-73
2022/06/14 09:27:58;;;;;;;6.47;0.82;;;22.20;43.40;;;;;;5033824;28;20502;-73
2022/06/14 09:30:45;;;;;;;4.68;1.30;;;22.40;43.00;;;;;;5038182;28;20041;-73
2022/06/14 09:33:34;;;;;;;3.08;1.13;;;22.60;42.60;;;;;;5039383;28;20044;-73
2022/06/14 09:36:19;;;;;;;3.90;0.90;;;22.50;41.90;;;;;;5027307;28;20052;-73
2022/06/14 09:39:13;;;;;;;4.78;1.00;;;22.60;41.90;;;;;;5033313;28;20786;-74
2022/06/14 09:42:14;;;;;;;4.85;1.00;;;22.60;42.20;;;;;;5037267;28;20136;-73
2022/06/14 09:45:01;;;;;;;6.43;1.27;;;22.70;42.20;;;;;;4961244;28;20043;-72
2022/06/14 09:47:51;;;;;;;3.72;0.90;;;22.80;41.20;;;;;;5029428;28;20053;-73
2022/06/14 09:50:26;;;;;;;4.13;1.13;;;22.70;42.00;;;;;;5035655;28;20132;-73
2022/06/14 09:53:21;;;;;;;8.95;1.45;;;22.60;42.30;;;;;;5031868;28;20028;-73
2022/06/14 09:56:22;;;;;;;3.58;1.25;;;22.60;42.50;;;;;;5032772;28;20045;-73
2022/06/14 09:59:13;;;;;;;4.30;0.82;;;22.70;42.30;;;;;;5032959;28;20029;-73
2022/06/14 10:02:17;;;;;;;3.35;0.95;;;22.60;42.10;;;;;;5037306;28;20047;-72
2022/06/14 10:05:08;;;;;;;2.55;0.95;;;22.40;42.10;;;;;;5037041;28;20033;-72
2022/06/14 10:08:11;;;;;;;6.25;2.15;;;22.40;42.80;;;;;;5040079;28;20064;-72
2022/06/14 10:10:58;;;;;;;5.20;0.85;;;22.30;44.30;;;;;;5015091;28;20034;-73
2022/06/14 10:13:49;;;;;;;4.65;1.08;;;21.90;44.20;;;;;;5034202;28;20034;-73
2022/06/14 10:16:38;;;;;;;3.35;0.95;;;22.00;43.60;;;;;;5049584;28;20087;-73
2022/06/14 10:19:10;;;;;;;5.72;0.98;;;22.00;44.10;;;;;;5037022;28;20045;-73
2022/06/14 10:22:26;;;;;;;4.22;0.82;;;22.10;44.00;;;;;;5033783;28;20170;-73
2022/06/14 10:24:55;;;;;;;8.15;1.10;;;22.40;43.20;;;;;;5032447;28;20038;-73
2022/06/14 10:30:47;;;;;;;3.53;0.90;;;22.70;42.00;;;;;;5038127;28;20762;-71
2022/06/14 10:33:22;;;;;;;6.70;1.08;;;22.90;42.00;;;;;;5032808;28;20040;-73
2022/06/14 10:35:51;;;;;;;5.75;1.00;;;22.90;42.40;;;;;;5040255;28;20037;-72
2022/06/14 10:38:41;;;;;;;2.92;1.02;;;23.10;42.20;;;;;;5052871;28;20232;-72
2022/06/14 10:41:38;;;;;;;4.43;1.15;;;23.20;42.50;;;;;;5038785;28;20440;-72
2022/06/14 10:44:22;;;;;;;3.78;1.15;;;23.10;41.40;;;;;;5035414;28;20482;-73
2022/06/14 10:47:25;;;;;;;2.42;0.80;;;22.90;41.90;;;;;;5033017;28;20036;-73
2022/06/14 10:49:54;;;;;;;3.85;1.30;;;22.80;41.90;;;;;;5008842;28;20033;-72
2022/06/14 10:58:21;;;;;;;4.93;1.20;;;22.90;42.30;;;;;;5033865;28;20327;-87
2022/06/14 11:02:18;;;;;;;4.40;0.82;;;23.20;41.30;;;;;;4962546;28;20042;-85
2022/06/14 11:06:15;;;;;;;4.15;1.08;;;23.30;41.00;;;;;;4941218;29;20045;-86
2022/06/14 11:13:51;;;;;;;3.78;1.05;;;23.40;41.00;;;;;;4944328;29;20517;-85
2022/06/14 11:21:22;;;;;;;3.80;0.80;;;23.70;41.20;;;;;;4919962;29;20075;-89
